sensor_id;sensor_type;location;lat;lon;timestamp;pressure;altitude;pressure_sealevel;temperature;humidity
73297;BME280;61524;50.938;11.396;2024-03-08T00:00:14;99529.84;;;-2.31;98.28
73297;BME280;61524;50.938;11.396;2024-03-08T00:02:41;99513.66;;;-2.35;98.79
73297;BME280;61524;50.938;11.396;2024-03-08T00:05:08;99516.72;;;-2.40;97.86
73297;BME280;61524;50.938;11.396;2024-03-08T00:07:35;99517.69;;;-2.41;97.72
73297;BME280;61524;50.938;11.396;2024-03-08T00:10:05;99516.78;;;-2.49;97.87
73297;BME280;61524;50.938;11.396;2024-03-08T00:12:31;99513.16;;;-2.56;97.89
73297;BME280;61524;50.938;11.396;2024-03-08T00:14:56;99504.78;;;-2.60;98.24
73297;BME280;61524;50.938;11.396;2024-03-08T00:17:22;99508.66;;;-2.64;98.17
73297;BME280;61524;50.938;11.396;2024-03-08T00:19:50;99499.63;;;-2.70;98.04
73297;BME280;61524;50.938;11.396;2024-03-08T00:22:16;99496.06;;;-2.69;97.91
73297;BME280;61524;50.938;11.396;2024-03-08T00:24:42;99498.81;;;-2.70;98.30
73297;BME280;61524;50.938;11.396;2024-03-08T00:27:07;99502.47;;;-2.81;97.91
73297;BME280;61524;50.938;11.396;2024-03-08T00:29:34;99501.47;;;-2.80;98.38
73297;BME280;61524;50.938;11.396;2024-03-08T00:32:00;99506.72;;;-2.80;97.91
73297;BME280;61524;50.938;11.396;2024-03-08T00:34:25;99495.97;;;-2.77;97.94
73297;BME280;61524;50.938;11.396;2024-03-08T00:36:51;99505.22;;;-2.82;98.48
73297;BME280;61524;50.938;11.396;2024-03-08T00:39:18;99502.00;;;-2.76;97.64
73297;BME280;61524;50.938;11.396;2024-03-08T00:41:45;99484.31;;;-2.82;97.34
73297;BME280;61524;50.938;11.396;2024-03-08T00:44:10;99495.16;;;-2.77;97.89
73297;BME280;61524;50.938;11.396;2024-03-08T00:46:36;99501.19;;;-2.77;98.52
73297;BME280;61524;50.938;11.396;2024-03-08T00:49:01;99497.22;;;-2.81;98.17
73297;BME280;61524;50.938;11.396;2024-03-08T00:51:26;99489.53;;;-2.82;98.08
73297;BME280;61524;50.938;11.396;2024-03-08T00:53:52;99487.53;;;-2.88;98.59
73297;BME280;61524;50.938;11.396;2024-03-08T00:56:17;99485.22;;;-2.92;98.27
73297;BME280;61524;50.938;11.396;2024-03-08T00:58:43;99487.69;;;-2.90;98.86
73297;BME280;61524;50.938;11.396;2024-03-08T01:01:08;99487.00;;;-2.92;97.53
73297;BME280;61524;50.938;11.396;2024-03-08T01:03:35;99476.75;;;-3.03;98.43
73297;BME280;61524;50.938;11.396;2024-03-08T01:06:01;99486.13;;;-3.01;98.77
73297;BME280;61524;50.938;11.396;2024-03-08T01:08:27;99484.22;;;-3.08;98.26
73297;BME280;61524;50.938;11.396;2024-03-08T01:10:53;99481.25;;;-3.13;99.09
73297;BME280;61524;50.938;11.396;2024-03-08T01:13:19;99479.75;;;-3.16;99.01
73297;BME280;61524;50.938;11.396;2024-03-08T01:15:45;99468.78;;;-3.20;98.60
73297;BME280;61524;50.938;11.396;2024-03-08T01:18:11;99472.34;;;-3.21;98.64
73297;BME280;61524;50.938;11.396;2024-03-08T01:20:36;99471.16;;;-3.26;98.89
73297;BME280;61524;50.938;11.396;2024-03-08T01:23:02;99468.69;;;-3.28;99.76
73297;BME280;61524;50.938;11.396;2024-03-08T01:25:28;99460.47;;;-3.33;98.36
73297;BME280;61524;50.938;11.396;2024-03-08T01:27:54;99464.56;;;-3.30;98.99
73297;BME280;61524;50.938;11.396;2024-03-08T01:30:19;99461.00;;;-3.29;99.47
73297;BME280;61524;50.938;11.396;2024-03-08T01:32:45;99462.28;;;-3.33;99.90
73297;BME280;61524;50.938;11.396;2024-03-08T01:35:10;99439.25;;;-3.48;99.50
73297;BME280;61524;50.938;11.396;2024-03-08T01:37:36;99454.19;;;-3.40;99.81
73297;BME280;61524;50.938;11.396;2024-03-08T01:40:02;99452.00;;;-3.45;100.00
73297;BME280;61524;50.938;11.396;2024-03-08T01:42:28;99448.88;;;-3.48;100.00
73297;BME280;61524;50.938;11.396;2024-03-08T01:44:54;99453.56;;;-3.52;99.96
73297;BME280;61524;50.938;11.396;2024-03-08T01:47:21;99450.13;;;-3.52;99.91
73297;BME280;61524;50.938;11.396;2024-03-08T01:49:49;99448.19;;;-3.50;100.00
73297;BME280;61524;50.938;11.396;2024-03-08T01:52:16;99445.56;;;-3.50;99.25
73297;BME280;61524;50.938;11.396;2024-03-08T01:54:44;99420.25;;;-3.67;99.90
73297;BME280;61524;50.938;11.396;2024-03-08T01:57:10;99437.50;;;-3.57;99.29
73297;BME280;61524;50.938;11.396;2024-03-08T01:59:36;99444.16;;;-3.62;99.55
73297;BME280;61524;50.938;11.396;2024-03-08T02:02:02;99433.84;;;-3.64;99.47
73297;BME280;61524;50.938;11.396;2024-03-08T02:04:30;99433.84;;;-3.64;99.13
73297;BME280;61524;50.938;11.396;2024-03-08T02:06:58;99423.84;;;-3.68;99.50
73297;BME280;61524;50.938;11.396;2024-03-08T02:09:24;99424.38;;;-3.65;99.85
73297;BME280;61524;50.938;11.396;2024-03-08T02:11:50;99426.47;;;-3.68;100.00
73297;BME280;61524;50.938;11.396;2024-03-08T02:14:17;99423.03;;;-3.69;99.30
73297;BME280;61524;50.938;11.396;2024-03-08T02:16:44;99423.69;;;-3.67;99.65
73297;BME280;61524;50.938;11.396;2024-03-08T02:19:09;99409.31;;;-3.71;100.00
73297;BME280;61524;50.938;11.396;2024-03-08T02:21:35;99417.81;;;-3.69;100.00
73297;BME280;61524;50.938;11.396;2024-03-08T02:24:01;99413.84;;;-3.73;100.00
73297;BME280;61524;50.938;11.396;2024-03-08T02:26:27;99403.34;;;-3.63;99.68
73297;BME280;61524;50.938;11.396;2024-03-08T02:28:52;99404.59;;;-3.67;99.14
73297;BME280;61524;50.938;11.396;2024-03-08T02:31:18;99374.88;;;-3.84;98.78
73297;BME280;61524;50.938;11.396;2024-03-08T02:33:43;99405.03;;;-3.72;98.12
73297;BME280;61524;50.938;11.396;2024-03-08T02:36:09;99400.94;;;-3.75;98.57
73297;BME280;61524;50.938;11.396;2024-03-08T02:38:34;99394.50;;;-3.80;98.50
73297;BME280;61524;50.938;11.396;2024-03-08T02:41:00;99394.13;;;-3.85;98.91
73297;BME280;61524;50.938;11.396;2024-03-08T02:43:26;99403.06;;;-3.88;99.41
73297;BME280;61524;50.938;11.396;2024-03-08T02:45:51;99393.47;;;-3.87;99.71
73297;BME280;61524;50.938;11.396;2024-03-08T02:48:19;99388.53;;;-3.90;99.67
73297;BME280;61524;50.938;11.396;2024-03-08T02:50:46;99388.28;;;-3.97;99.49
73297;BME280;61524;50.938;11.396;2024-03-08T02:53:13;99384.16;;;-4.00;100.00
73297;BME280;61524;50.938;11.396;2024-03-08T02:55:39;99387.47;;;-3.98;100.00
73297;BME280;61524;50.938;11.396;2024-03-08T02:58:04;99381.94;;;-3.94;100.00
73297;BME280;61524;50.938;11.396;2024-03-08T03:00:30;99395.97;;;-3.96;100.00
73297;BME280;61524;50.938;11.396;2024-03-08T03:02:59;99388.81;;;-3.93;100.00
73297;BME280;61524;50.938;11.396;2024-03-08T03:05:25;99375.38;;;-3.99;100.00
73297;BME280;61524;50.938;11.396;2024-03-08T03:07:51;99380.88;;;-4.02;100.00
73297;BME280;61524;50.938;11.396;2024-03-08T03:10:17;99383.34;;;-4.00;100.00
73297;BME280;61524;50.938;11.396;2024-03-08T03:12:43;99370.63;;;-4.03;100.00
73297;BME280;61524;50.938;11.396;2024-03-08T03:15:10;99373.09;;;-4.11;100.00
73297;BME280;61524;50.938;11.396;2024-03-08T03:17:36;99369.53;;;-4.10;100.00
73297;BME280;61524;50.938;11.396;2024-03-08T03:20:05;99376.69;;;-4.12;100.00
73297;BME280;61524;50.938;11.396;2024-03-08T03:22:36;99374.22;;;-4.14;100.00
73297;BME280;61524;50.938;11.396;2024-03-08T03:25:02;99349.84;;;-4.32;100.00
73297;BME280;61524;50.938;11.396;2024-03-08T03:27:29;99382.34;;;-4.17;100.00
73297;BME280;61524;50.938;11.396;2024-03-08T03:29:56;99377.16;;;-4.27;100.00
73297;BME280;61524;50.938;11.396;2024-03-08T03:32:23;99373.84;;;-4.19;100.00
73297;BME280;61524;50.938;11.396;2024-03-08T03:34:49;99386.59;;;-4.26;100.00
73297;BME280;61524;50.938;11.396;2024-03-08T03:37:20;99378.94;;;-4.27;100.00
73297;BME280;61524;50.938;11.396;2024-03-08T03:39:46;99376.63;;;-4.30;100.00
73297;BME280;61524;50.938;11.396;2024-03-08T03:42:18;99365.50;;;-4.32;100.00
73297;BME280;61524;50.938;11.396;2024-03-08T03:44:47;99352.50;;;-4.42;100.00
73297;BME280;61524;50.938;11.396;2024-03-08T03:47:13;99367.69;;;-4.28;100.00
73297;BME280;61524;50.938;11.396;2024-03-08T03:49:42;99362.91;;;-4.32;100.00
73297;BME280;61524;50.938;11.396;2024-03-08T03:52:08;99372.91;;;-4.28;100.00
73297;BME280;61524;50.938;11.396;2024-03-08T03:54:34;99367.84;;;-4.29;100.00
73297;BME280;61524;50.938;11.396;2024-03-08T03:56:59;99353.59;;;-4.35;100.00
73297;BME280;61524;50.938;11.396;2024-03-08T03:59:26;99361.09;;;-4.32;100.00
73297;BME280;61524;50.938;11.396;2024-03-08T04:01:51;99354.69;;;-4.37;100.00
73297;BME280;61524;50.938;11.396;2024-03-08T04:04:16;99345.13;;;-4.46;100.00
73297;BME280;61524;50.938;11.396;2024-03-08T04:06:42;99348.00;;;-4.50;100.00
73297;BME280;61524;50.938;11.396;2024-03-08T04:09:07;99339.94;;;-4.56;100.00
73297;BME280;61524;50.938;11.396;2024-03-08T04:11:33;99344.84;;;-4.53;100.00
73297;BME280;61524;50.938;11.396;2024-03-08T04:13:59;99332.53;;;-4.51;100.00
73297;BME280;61524;50.938;11.396;2024-03-08T04:16:24;99340.03;;;-4.48;100.00
73297;BME280;61524;50.938;11.396;2024-03-08T04:18:51;99335.56;;;-4.56;100.00
73297;BME280;61524;50.938;11.396;2024-03-08T04:21:17;99342.38;;;-4.45;100.00
73297;BME280;61524;50.938;11.396;2024-03-08T04:23:44;99338.94;;;-4.45;100.00
73297;BME280;61524;50.938;11.396;2024-03-08T04:26:10;99340.44;;;-4.43;100.00
73297;BME280;61524;50.938;11.396;2024-03-08T04:28:36;99342.53;;;-4.46;100.00
73297;BME280;61524;50.938;11.396;2024-03-08T04:31:03;99331.13;;;-4.45;100.00
73297;BME280;61524;50.938;11.396;2024-03-08T04:33:28;99335.63;;;-4.47;100.00
73297;BME280;61524;50.938;11.396;2024-03-08T04:35:54;99334.81;;;-4.48;100.00
73297;BME280;61524;50.938;11.396;2024-03-08T04:38:19;99343.75;;;-4.51;100.00
73297;BME280;61524;50.938;11.396;2024-03-08T04:40:45;99332.78;;;-4.54;99.97
73297;BME280;61524;50.938;11.396;2024-03-08T04:43:10;99332.78;;;-4.54;99.83
73297;BME280;61524;50.938;11.396;2024-03-08T04:45:36;99342.78;;;-4.50;99.60
73297;BME280;61524;50.938;11.396;2024-03-08T04:48:02;99341.16;;;-4.51;100.00
73297;BME280;61524;50.938;11.396;2024-03-08T04:50:27;99344.75;;;-4.52;100.00
73297;BME280;61524;50.938;11.396;2024-03-08T04:52:56;99342.41;;;-4.55;99.82
73297;BME280;61524;50.938;11.396;2024-03-08T04:55:21;99338.56;;;-4.51;99.19
73297;BME280;61524;50.938;11.396;2024-03-08T04:57:48;99329.22;;;-4.53;99.43
73297;BME280;61524;50.938;11.396;2024-03-08T05:00:14;99339.22;;;-4.49;99.90
73297;BME280;61524;50.938;11.396;2024-03-08T05:02:41;99333.91;;;-4.57;99.93
73297;BME280;61524;50.938;11.396;2024-03-08T05:05:08;99333.59;;;-4.54;100.00
73297;BME280;61524;50.938;11.396;2024-03-08T05:07:37;99325.31;;;-4.67;99.91
73297;BME280;61524;50.938;11.396;2024-03-08T05:10:02;99332.81;;;-4.64;99.87
73297;BME280;61524;50.938;11.396;2024-03-08T05:12:28;99333.94;;;-4.66;100.00
73297;BME280;61524;50.938;11.396;2024-03-08T05:14:54;99335.56;;;-4.65;99.03
73297;BME280;61524;50.938;11.396;2024-03-08T05:17:20;99324.59;;;-4.69;100.00
73297;BME280;61524;50.938;11.396;2024-03-08T05:19:45;99332.97;;;-4.65;99.85
73297;BME280;61524;50.938;11.396;2024-03-08T05:22:10;99342.28;;;-4.63;100.00
73297;BME280;61524;50.938;11.396;2024-03-08T05:24:36;99332.16;;;-4.66;99.61
73297;BME280;61524;50.938;11.396;2024-03-08T05:27:02;99335.03;;;-4.69;99.44
73297;BME280;61524;50.938;11.396;2024-03-08T05:29:29;99327.50;;;-4.72;99.45
73297;BME280;61524;50.938;11.396;2024-03-08T05:31:55;99334.63;;;-4.74;99.92
73297;BME280;61524;50.938;11.396;2024-03-08T05:34:21;99328.25;;;-4.89;100.00
73297;BME280;61524;50.938;11.396;2024-03-08T05:36:48;99333.00;;;-4.75;100.00
73297;BME280;61524;50.938;11.396;2024-03-08T05:39:16;99323.97;;;-4.81;100.00
73297;BME280;61524;50.938;11.396;2024-03-08T05:41:43;99324.38;;;-4.85;100.00
73297;BME280;61524;50.938;11.396;2024-03-08T05:44:09;99321.50;;;-4.82;100.00
73297;BME280;61524;50.938;11.396;2024-03-08T05:46:35;99318.59;;;-4.79;100.00
73297;BME280;61524;50.938;11.396;2024-03-08T05:49:04;99324.34;;;-4.76;100.00
73297;BME280;61524;50.938;11.396;2024-03-08T05:51:34;99322.28;;;-4.72;100.00
73297;BME280;61524;50.938;11.396;2024-03-08T05:54:01;99325.41;;;-4.68;100.00
73297;BME280;61524;50.938;11.396;2024-03-08T05:56:29;99296.94;;;-4.80;100.00
73297;BME280;61524;50.938;11.396;2024-03-08T05:58:55;99317.19;;;-4.64;100.00
73297;BME280;61524;50.938;11.396;2024-03-08T06:01:20;99334.47;;;-4.63;100.00
73297;BME280;61524;50.938;11.396;2024-03-08T06:03:47;99328.69;;;-4.57;100.00
73297;BME280;61524;50.938;11.396;2024-03-08T06:06:14;99327.81;;;-4.47;100.00
73297;BME280;61524;50.938;11.396;2024-03-08T06:08:40;99331.13;;;-4.45;100.00
73297;BME280;61524;50.938;11.396;2024-03-08T06:11:08;99324.00;;;-4.53;100.00
73297;BME280;61524;50.938;11.396;2024-03-08T06:13:34;99330.97;;;-4.44;100.00
73297;BME280;61524;50.938;11.396;2024-03-08T06:16:00;99330.41;;;-4.38;100.00
73297;BME280;61524;50.938;11.396;2024-03-08T06:18:30;99331.59;;;-4.32;100.00
73297;BME280;61524;50.938;11.396;2024-03-08T06:20:55;99319.09;;;-4.29;100.00
73297;BME280;61524;50.938;11.396;2024-03-08T06:23:21;99342.53;;;-4.19;100.00
73297;BME280;61524;50.938;11.396;2024-03-08T06:25:47;99322.63;;;-4.20;100.00
73297;BME280;61524;50.938;11.396;2024-03-08T06:28:12;99316.97;;;-4.15;100.00
73297;BME280;61524;50.938;11.396;2024-03-08T06:30:39;99297.38;;;-4.19;99.88
73297;BME280;61524;50.938;11.396;2024-03-08T06:33:05;99328.41;;;-3.99;100.00
73297;BME280;61524;50.938;11.396;2024-03-08T06:35:30;99323.28;;;-3.90;100.00
73297;BME280;61524;50.938;11.396;2024-03-08T06:37:58;99309.97;;;-3.87;100.00
73297;BME280;61524;50.938;11.396;2024-03-08T06:40:23;99316.97;;;-3.70;99.45
73297;BME280;61524;50.938;11.396;2024-03-08T06:42:48;99315.03;;;-3.68;99.01
73297;BME280;61524;50.938;11.396;2024-03-08T06:45:14;99318.66;;;-3.61;98.69
73297;BME280;61524;50.938;11.396;2024-03-08T06:47:44;99311.59;;;-3.51;98.94
73297;BME280;61524;50.938;11.396;2024-03-08T06:50:11;99315.09;;;-3.42;99.38
73297;BME280;61524;50.938;11.396;2024-03-08T06:52:36;99312.03;;;-3.37;99.23
73297;BME280;61524;50.938;11.396;2024-03-08T06:55:02;99311.97;;;-3.28;98.77
73297;BME280;61524;50.938;11.396;2024-03-08T06:57:30;99309.25;;;-3.18;98.07
73297;BME280;61524;50.938;11.396;2024-03-08T06:59:56;99307.59;;;-3.01;97.51
73297;BME280;61524;50.938;11.396;2024-03-08T07:02:23;99305.84;;;-2.93;96.88
73297;BME280;61524;50.938;11.396;2024-03-08T07:04:50;99298.06;;;-2.84;96.34
73297;BME280;61524;50.938;11.396;2024-03-08T07:07:16;99287.00;;;-2.96;96.15
73297;BME280;61524;50.938;11.396;2024-03-08T07:09:44;99302.66;;;-2.78;96.45
73297;BME280;61524;50.938;11.396;2024-03-08T07:12:10;99302.50;;;-2.77;96.74
73297;BME280;61524;50.938;11.396;2024-03-08T07:14:38;99301.47;;;-2.58;96.20
73297;BME280;61524;50.938;11.396;2024-03-08T07:17:07;99301.56;;;-2.42;96.35
73297;BME280;61524;50.938;11.396;2024-03-08T07:19:36;99306.50;;;-2.30;95.91
73297;BME280;61524;50.938;11.396;2024-03-08T07:22:04;99294.75;;;-2.18;96.09
73297;BME280;61524;50.938;11.396;2024-03-08T07:24:29;99302.50;;;-2.00;96.03
73297;BME280;61524;50.938;11.396;2024-03-08T07:27:05;99293.03;;;-1.85;95.73
73297;BME280;61524;50.938;11.396;2024-03-08T07:29:34;99285.38;;;-1.62;95.22
73297;BME280;61524;50.938;11.396;2024-03-08T07:32:00;99288.81;;;-1.62;94.71
73297;BME280;61524;50.938;11.396;2024-03-08T07:34:25;99281.16;;;-1.55;94.13
73297;BME280;61524;50.938;11.396;2024-03-08T07:36:51;99281.00;;;-1.45;94.33
73297;BME280;61524;50.938;11.396;2024-03-08T07:39:16;99277.19;;;-1.35;94.40
73297;BME280;61524;50.938;11.396;2024-03-08T07:41:42;99283.44;;;-1.36;93.56
73297;BME280;61524;50.938;11.396;2024-03-08T07:44:08;99282.13;;;-1.15;93.30
73297;BME280;61524;50.938;11.396;2024-03-08T07:46:34;99261.63;;;-0.95;92.85
73297;BME280;61524;50.938;11.396;2024-03-08T07:49:00;99274.53;;;-0.77;92.50
73297;BME280;61524;50.938;11.396;2024-03-08T07:51:26;99276.97;;;-0.76;91.99
73297;BME280;61524;50.938;11.396;2024-03-08T07:53:51;99273.88;;;-0.88;92.40
73297;BME280;61524;50.938;11.396;2024-03-08T07:56:17;99272.06;;;-0.87;93.66
73297;BME280;61524;50.938;11.396;2024-03-08T07:58:44;99274.84;;;-0.72;93.49
73297;BME280;61524;50.938;11.396;2024-03-08T08:01:18;99266.38;;;-0.43;93.26
73297;BME280;61524;50.938;11.396;2024-03-08T08:03:45;99265.34;;;-0.34;92.91
73297;BME280;61524;50.938;11.396;2024-03-08T08:06:11;99260.72;;;-0.24;91.97
73297;BME280;61524;50.938;11.396;2024-03-08T08:08:44;99267.69;;;-0.08;91.58
73297;BME280;61524;50.938;11.396;2024-03-08T08:11:10;99259.19;;;0.13;91.77
73297;BME280;61524;50.938;11.396;2024-03-08T08:13:41;99247.69;;;0.14;91.65
73297;BME280;61524;50.938;11.396;2024-03-08T08:16:09;99245.97;;;0.29;91.13
73297;BME280;61524;50.938;11.396;2024-03-08T08:18:34;99245.88;;;0.60;91.05
73297;BME280;61524;50.938;11.396;2024-03-08T08:21:01;99250.75;;;0.86;90.35
73297;BME280;61524;50.938;11.396;2024-03-08T08:23:26;99238.25;;;1.03;89.92
73297;BME280;61524;50.938;11.396;2024-03-08T08:25:52;99231.00;;;1.05;89.61
73297;BME280;61524;50.938;11.396;2024-03-08T08:28:17;99233.00;;;1.03;90.32
73297;BME280;61524;50.938;11.396;2024-03-08T08:30:44;99233.38;;;1.29;89.10
73297;BME280;61524;50.938;11.396;2024-03-08T08:33:10;99236.50;;;1.40;89.22
73297;BME280;61524;50.938;11.396;2024-03-08T08:35:39;99235.06;;;1.52;88.71
73297;BME280;61524;50.938;11.396;2024-03-08T08:38:07;99243.25;;;1.57;88.94
73297;BME280;61524;50.938;11.396;2024-03-08T08:40:33;99242.84;;;1.75;89.15
73297;BME280;61524;50.938;11.396;2024-03-08T08:43:00;99221.75;;;1.90;88.59
73297;BME280;61524;50.938;11.396;2024-03-08T08:45:26;99227.84;;;2.12;87.14
73297;BME280;61524;50.938;11.396;2024-03-08T08:47:52;99225.88;;;2.42;87.13
73297;BME280;61524;50.938;11.396;2024-03-08T08:50:17;99227.72;;;2.41;87.43
73297;BME280;61524;50.938;11.396;2024-03-08T08:52:49;99231.28;;;2.55;85.63
73297;BME280;61524;50.938;11.396;2024-03-08T08:55:14;99232.81;;;2.64;85.06
73297;BME280;61524;50.938;11.396;2024-03-08T08:57:43;99221.00;;;2.88;84.64
73297;BME280;61524;50.938;11.396;2024-03-08T09:00:09;99213.28;;;2.86;85.12
73297;BME280;61524;50.938;11.396;2024-03-08T09:02:40;99225.41;;;3.09;84.18
73297;BME280;61524;50.938;11.396;2024-03-08T09:05:06;99220.94;;;3.09;84.91
73297;BME280;61524;50.938;11.396;2024-03-08T09:07:33;99214.69;;;3.17;84.74
73297;BME280;61524;50.938;11.396;2024-03-08T09:09:59;99213.44;;;3.48;81.73
73297;BME280;61524;50.938;11.396;2024-03-08T09:12:25;99209.06;;;3.81;81.62
73297;BME280;61524;50.938;11.396;2024-03-08T09:14:51;99214.09;;;3.63;81.20
73297;BME280;61524;50.938;11.396;2024-03-08T09:17:16;99210.31;;;3.85;81.98
73297;BME280;61524;50.938;11.396;2024-03-08T09:19:48;99206.28;;;3.96;79.53
73297;BME280;61524;50.938;11.396;2024-03-08T09:22:13;99197.91;;;3.92;79.38
73297;BME280;61524;50.938;11.396;2024-03-08T09:24:39;99186.97;;;3.95;79.51
73297;BME280;61524;50.938;11.396;2024-03-08T09:27:04;99186.41;;;4.33;78.12
73297;BME280;61524;50.938;11.396;2024-03-08T09:29:30;99186.84;;;4.37;77.82
73297;BME280;61524;50.938;11.396;2024-03-08T09:31:55;99173.41;;;4.38;77.08
73297;BME280;61524;50.938;11.396;2024-03-08T09:34:21;99166.47;;;4.24;77.01
73297;BME280;61524;50.938;11.396;2024-03-08T09:36:46;99167.47;;;4.23;78.82
73297;BME280;61524;50.938;11.396;2024-03-08T09:39:12;99164.44;;;4.46;76.37
73297;BME280;61524;50.938;11.396;2024-03-08T09:41:44;99152.22;;;4.65;77.25
73297;BME280;61524;50.938;11.396;2024-03-08T09:44:13;99149.38;;;4.40;78.08
73297;BME280;61524;50.938;11.396;2024-03-08T09:46:39;99158.72;;;4.62;76.60
73297;BME280;61524;50.938;11.396;2024-03-08T09:49:06;99152.41;;;4.70;75.40
73297;BME280;61524;50.938;11.396;2024-03-08T09:51:34;99143.25;;;4.66;75.87
73297;BME280;61524;50.938;11.396;2024-03-08T09:54:03;99143.59;;;5.03;75.86
73297;BME280;61524;50.938;11.396;2024-03-08T09:56:32;99139.34;;;5.02;74.07
73297;BME280;61524;50.938;11.396;2024-03-08T09:58:58;99148.84;;;5.16;73.65
73297;BME280;61524;50.938;11.396;2024-03-08T10:01:29;99136.03;;;5.13;74.93
73297;BME280;61524;50.938;11.396;2024-03-08T10:03:57;99122.06;;;4.86;73.23
73297;BME280;61524;50.938;11.396;2024-03-08T10:06:23;99139.44;;;5.26;72.44
73297;BME280;61524;50.938;11.396;2024-03-08T10:08:49;99138.22;;;5.29;70.51
73297;BME280;61524;50.938;11.396;2024-03-08T10:11:17;99132.56;;;5.19;73.03
73297;BME280;61524;50.938;11.396;2024-03-08T10:13:44;99123.75;;;5.25;73.67
73297;BME280;61524;50.938;11.396;2024-03-08T10:16:12;99106.88;;;5.19;73.52
73297;BME280;61524;50.938;11.396;2024-03-08T10:18:37;99108.81;;;5.44;74.01
73297;BME280;61524;50.938;11.396;2024-03-08T10:21:09;99112.59;;;5.61;73.70
73297;BME280;61524;50.938;11.396;2024-03-08T10:23:38;99122.56;;;5.66;72.18
73297;BME280;61524;50.938;11.396;2024-03-08T10:26:14;99122.06;;;5.75;72.28
73297;BME280;61524;50.938;11.396;2024-03-08T10:28:44;99106.66;;;5.66;72.71
73297;BME280;61524;50.938;11.396;2024-03-08T10:31:10;99108.16;;;5.87;72.97
73297;BME280;61524;50.938;11.396;2024-03-08T10:33:35;99093.94;;;5.74;73.10
73297;BME280;61524;50.938;11.396;2024-03-08T10:36:03;99097.09;;;5.96;72.78
73297;BME280;61524;50.938;11.396;2024-03-08T10:38:31;99088.34;;;5.89;72.66
73297;BME280;61524;50.938;11.396;2024-03-08T10:41:01;99095.38;;;5.77;71.92
73297;BME280;61524;50.938;11.396;2024-03-08T10:43:31;99089.97;;;5.90;73.05
73297;BME280;61524;50.938;11.396;2024-03-08T10:46:30;99093.81;;;6.01;72.38
73297;BME280;61524;50.938;11.396;2024-03-08T10:48:57;99093.16;;;6.30;72.72
73297;BME280;61524;50.938;11.396;2024-03-08T10:51:29;99081.63;;;5.93;71.42
73297;BME280;61524;50.938;11.396;2024-03-08T10:53:55;99095.91;;;5.86;71.42
73297;BME280;61524;50.938;11.396;2024-03-08T10:56:21;99087.06;;;6.30;72.43
73297;BME280;61524;50.938;11.396;2024-03-08T10:58:48;99089.97;;;6.65;69.79
73297;BME280;61524;50.938;11.396;2024-03-08T11:01:14;99073.81;;;6.67;69.15
73297;BME280;61524;50.938;11.396;2024-03-08T11:06:48;99073.16;;;6.53;69.58
73297;BME280;61524;50.938;11.396;2024-03-08T11:08:54;99077.44;;;6.29;69.88
73297;BME280;61524;50.938;11.396;2024-03-08T11:11:31;99063.69;;;6.39;71.74
73297;BME280;61524;50.938;11.396;2024-03-08T11:13:57;99070.81;;;6.63;70.64
73297;BME280;61524;50.938;11.396;2024-03-08T11:18:58;99060.81;;;6.40;70.79
73297;BME280;61524;50.938;11.396;2024-03-08T11:21:30;99062.06;;;6.38;69.33
73297;BME280;61524;50.938;11.396;2024-03-08T11:24:02;99056.91;;;6.43;69.63
73297;BME280;61524;50.938;11.396;2024-03-08T11:26:31;99056.56;;;6.76;69.53
73297;BME280;61524;50.938;11.396;2024-03-08T11:34:43;99033.69;;;7.12;68.94
73297;BME280;61524;50.938;11.396;2024-03-08T11:37:13;99037.44;;;7.22;70.16
73297;BME280;61524;50.938;11.396;2024-03-08T11:39:41;99021.97;;;6.82;68.16
73297;BME280;61524;50.938;11.396;2024-03-08T11:42:11;99014.44;;;6.98;68.88
73297;BME280;61524;50.938;11.396;2024-03-08T11:44:37;99022.44;;;7.09;67.96
73297;BME280;61524;50.938;11.396;2024-03-08T11:47:07;99025.00;;;6.86;68.95
73297;BME280;61524;50.938;11.396;2024-03-08T11:49:33;99026.16;;;7.08;67.72
73297;BME280;61524;50.938;11.396;2024-03-08T11:51:58;99015.19;;;7.05;69.22
73297;BME280;61524;50.938;11.396;2024-03-08T11:54:24;99014.53;;;6.91;69.33
73297;BME280;61524;50.938;11.396;2024-03-08T11:56:51;99018.38;;;6.95;68.83
73297;BME280;61524;50.938;11.396;2024-03-08T11:59:17;98996.22;;;7.01;69.83
73297;BME280;61524;50.938;11.396;2024-03-08T12:01:43;98997.38;;;7.35;68.53
73297;BME280;61524;50.938;11.396;2024-03-08T12:04:12;98982.44;;;7.23;67.96
73297;BME280;61524;50.938;11.396;2024-03-08T12:06:39;98989.44;;;7.05;68.86
73297;BME280;61524;50.938;11.396;2024-03-08T12:09:08;98982.38;;;7.41;67.83
73297;BME280;61524;50.938;11.396;2024-03-08T12:11:34;98973.97;;;7.56;66.67
73297;BME280;61524;50.938;11.396;2024-03-08T12:14:01;98987.13;;;7.51;67.17
73297;BME280;61524;50.938;11.396;2024-03-08T12:16:28;98974.66;;;7.63;69.26
73297;BME280;61524;50.938;11.396;2024-03-08T12:18:54;98983.75;;;7.32;67.51
73297;BME280;61524;50.938;11.396;2024-03-08T12:21:20;98969.09;;;7.53;67.01
73297;BME280;61524;50.938;11.396;2024-03-08T12:23:47;98951.91;;;7.55;67.90
73297;BME280;61524;50.938;11.396;2024-03-08T12:26:22;98953.94;;;7.42;67.28
73297;BME280;61524;50.938;11.396;2024-03-08T12:28:48;98953.06;;;7.59;67.48
73297;BME280;61524;50.938;11.396;2024-03-08T12:31:15;98951.66;;;7.69;67.90
73297;BME280;61524;50.938;11.396;2024-03-08T12:33:50;98959.56;;;7.75;67.97
73297;BME280;61524;50.938;11.396;2024-03-08T12:36:16;98943.81;;;7.62;67.62
73297;BME280;61524;50.938;11.396;2024-03-08T12:38:48;98944.72;;;7.56;68.52
73297;BME280;61524;50.938;11.396;2024-03-08T12:41:15;98942.75;;;7.75;68.38
73297;BME280;61524;50.938;11.396;2024-03-08T12:43:41;98941.88;;;7.81;66.95
73297;BME280;61524;50.938;11.396;2024-03-08T12:46:07;98933.41;;;7.96;66.82
73297;BME280;61524;50.938;11.396;2024-03-08T12:48:36;98935.16;;;8.13;66.99
73297;BME280;61524;50.938;11.396;2024-03-08T12:51:06;98921.50;;;8.10;65.80
73297;BME280;61524;50.938;11.396;2024-03-08T12:53:32;98921.13;;;8.06;67.00
73297;BME280;61524;50.938;11.396;2024-03-08T12:55:58;98924.03;;;8.05;67.77
73297;BME280;61524;50.938;11.396;2024-03-08T12:58:24;98915.72;;;7.78;67.20